createdAt,value
2018-01-21T00:01:02.958Z,86.87
2018-01-21T00:03:31.799Z,87.12
2018-01-21T00:06:00.676Z,86.96
2018-01-21T00:08:29.618Z,87.91
2018-01-21T00:10:58.467Z,88.47
2018-01-21T00:13:27.362Z,88.16
2018-01-21T00:15:57.171Z,88.12
2018-01-21T00:18:26.026Z,88.10
2018-01-21T00:20:54.956Z,88.58
2018-01-21T00:23:25.024Z,88.87
2018-01-21T00:25:53.901Z,88.63
2018-01-21T00:28:22.737Z,89.23
2018-01-21T00:30:52.674Z,89.40
2018-01-21T00:33:21.506Z,88.90
2018-01-21T00:35:50.374Z,89.04
2018-01-21T00:38:19.331Z,89.62
2018-01-21T00:40:48.149Z,89.12
2018-01-21T00:43:17.151Z,89.93
2018-01-21T00:45:46.061Z,90.64
2018-01-21T00:48:14.962Z,90.15
2018-01-21T00:50:43.796Z,90.21
2018-01-21T00:53:14.465Z,90.67
2018-01-21T00:55:43.340Z,90.82
2018-01-21T00:58:12.264Z,90.79
2018-01-21T01:00:41.222Z,90.64
2018-01-21T01:03:10.157Z,90.95
2018-01-21T01:05:39.007Z,91.01
2018-01-21T01:08:10.490Z,90.86
2018-01-21T01:10:39.532Z,91.33
2018-01-21T01:13:08.423Z,91.44
2018-01-21T01:15:37.434Z,92.03
2018-01-21T01:18:06.411Z,92.44
2018-01-21T01:20:35.287Z,92.89
2018-01-21T01:23:09.959Z,92.70
2018-01-21T01:25:38.940Z,92.62
2018-01-21T01:28:07.847Z,93.02
2018-01-21T01:30:36.787Z,94.09
2018-01-21T01:33:05.682Z,93.60
2018-01-21T01:35:34.672Z,92.48
2018-01-21T01:38:03.656Z,91.37
2018-01-21T01:40:32.542Z,89.71
2018-01-21T01:43:01.481Z,89.04
2018-01-21T01:45:30.436Z,89.29
2018-01-21T01:47:59.369Z,88.18
2018-01-21T01:50:28.221Z,89.02
2018-01-21T01:52:57.152Z,89.50
2018-01-21T01:55:26.042Z,88.49
2018-01-21T01:57:55.006Z,89.66
2018-01-21T02:00:23.965Z,91.06
2018-01-21T02:02:52.897Z,91.36
2018-01-21T02:05:21.786Z,91.68
2018-01-21T02:07:52.404Z,90.44
2018-01-21T02:10:21.213Z,91.46
2018-01-21T02:12:50.045Z,91.96
2018-01-21T02:15:22.580Z,90.86
2018-01-21T02:17:51.455Z,90.71
2018-01-21T02:20:20.320Z,90.17
2018-01-21T02:22:50.300Z,90.45
2018-01-21T02:25:19.154Z,90.85
2018-01-21T02:27:47.973Z,90.26
2018-01-21T02:30:16.937Z,90.27
2018-01-21T02:32:45.904Z,90.45
2018-01-21T02:35:14.913Z,90.37
2018-01-21T02:37:43.810Z,90.27
2018-01-21T02:40:12.704Z,91.21
2018-01-21T02:42:41.608Z,90.23
2018-01-21T02:45:10.488Z,90.53
2018-01-21T02:47:39.338Z,90.11
2018-01-21T02:50:08.175Z,90.12
2018-01-21T02:52:37.201Z,88.93
2018-01-21T02:55:06.045Z,89.19
2018-01-21T02:57:35.013Z,88.62
2018-01-21T03:00:03.993Z,88.40
2018-01-21T03:02:33.034Z,88.18
2018-01-21T03:05:02.010Z,88.04
2018-01-21T03:07:30.852Z,87.52
2018-01-21T03:09:59.658Z,87.06
2018-01-21T03:12:28.582Z,86.86
2018-01-21T03:14:58.382Z,88.48
2018-01-21T03:17:27.249Z,89.10
2018-01-21T03:19:56.056Z,88.93
2018-01-21T03:22:25.071Z,88.60
2018-01-21T03:24:53.952Z,88.21
2018-01-21T03:27:22.856Z,88.60
2018-01-21T03:29:52.626Z,88.61
2018-01-21T03:32:21.470Z,89.73
2018-01-21T03:34:50.449Z,89.45
2018-01-21T03:37:19.421Z,89.77
2018-01-21T03:39:48.299Z,89.71
2018-01-21T03:42:17.260Z,89.14
2018-01-21T03:44:46.214Z,88.72
2018-01-21T03:47:15.087Z,89.15
2018-01-21T03:49:43.985Z,90.78
2018-01-21T03:52:12.888Z,90.31
2018-01-21T03:54:41.762Z,89.65
2018-01-21T03:57:10.597Z,89.53
2018-01-21T03:59:42.398Z,89.25
2018-01-21T04:02:11.296Z,89.87
2018-01-21T04:04:40.236Z,89.94
2018-01-21T04:07:09.118Z,90.69
2018-01-21T04:09:38.006Z,89.38
2018-01-21T04:12:06.906Z,89.38
2018-01-21T04:14:36.691Z,88.74
2018-01-21T04:17:05.609Z,89.21
2018-01-21T04:19:34.472Z,89.59
2018-01-21T04:22:05.117Z,90.28
2018-01-21T04:24:34.054Z,89.51
2018-01-21T04:27:02.892Z,88.50
2018-01-21T04:29:31.739Z,89.10
2018-01-21T04:32:00.565Z,88.99
2018-01-21T04:34:29.398Z,89.45
2018-01-21T04:37:00.023Z,89.35
2018-01-21T04:39:28.876Z,89.60
2018-01-21T04:41:57.804Z,90.10
2018-01-21T04:44:26.667Z,90.87
2018-01-21T04:46:55.792Z,91.73
2018-01-21T04:49:24.967Z,91.33
2018-01-21T04:51:55.133Z,91.72
2018-01-21T04:54:24.108Z,92.51
2018-01-21T04:56:53.127Z,92.93
2018-01-21T04:59:23.967Z,92.96
2018-01-21T05:01:54.600Z,93.24
2018-01-21T05:04:26.493Z,93.48
2018-01-21T05:06:55.635Z,93.08
2018-01-21T05:09:24.625Z,92.92
2018-01-21T05:11:53.725Z,92.71
2018-01-21T05:14:22.722Z,92.31
2018-01-21T05:16:51.982Z,93.19
2018-01-21T05:19:21.300Z,93.01
2018-01-21T05:21:52.423Z,92.44
2018-01-21T05:24:21.355Z,92.14
2018-01-21T05:26:51.279Z,91.96
2018-01-21T05:29:21.294Z,91.99
2018-01-21T05:31:50.280Z,91.86
2018-01-21T05:34:20.218Z,90.72
2018-01-21T05:36:50.052Z,89.54
2018-01-21T05:39:20.012Z,89.92
2018-01-21T05:41:49.895Z,90.00
2018-01-21T05:44:19.062Z,89.59
2018-01-21T05:46:48.107Z,89.83
2018-01-21T05:49:17.230Z,88.60
2018-01-21T05:51:46.323Z,89.22
2018-01-21T05:54:15.522Z,90.13
2018-01-21T05:56:46.528Z,88.96
2018-01-21T05:59:17.227Z,89.29
2018-01-21T06:01:46.462Z,88.65
2018-01-21T06:04:17.857Z,89.43
2018-01-21T06:06:47.062Z,90.14
2018-01-21T06:09:15.921Z,88.60
2018-01-21T06:11:45.871Z,88.39
2018-01-21T06:14:14.877Z,88.83
2018-01-21T06:16:50.619Z,88.94
2018-01-21T06:19:19.876Z,88.73
2018-01-21T06:21:49.020Z,87.93
2018-01-21T06:24:19.000Z,87.34
2018-01-21T06:26:49.143Z,87.57
2018-01-21T06:29:18.990Z,87.03
2018-01-21T06:31:55.145Z,86.83
2018-01-21T06:34:24.273Z,86.70
2018-01-21T06:36:54.019Z,87.35
2018-01-21T06:39:22.934Z,86.77
2018-01-21T06:41:53.026Z,86.12
2018-01-21T06:44:22.987Z,86.47
2018-01-21T06:46:53.498Z,86.57
2018-01-21T06:49:22.939Z,85.63
2018-01-21T06:51:51.896Z,84.37
2018-01-21T06:54:22.082Z,83.81
2018-01-21T06:56:51.146Z,84.02
2018-01-21T06:59:21.194Z,85.04
2018-01-21T07:01:53.004Z,84.10
2018-01-21T07:04:22.965Z,84.43
2018-01-21T07:06:53.670Z,85.42
2018-01-21T07:09:23.276Z,85.84
2018-01-21T07:11:54.380Z,85.75
2018-01-21T07:14:24.404Z,84.62
2018-01-21T07:16:53.585Z,86.99
2018-01-21T07:19:24.178Z,87.25
2018-01-21T07:21:53.779Z,86.02
2018-01-21T07:24:24.420Z,83.95
2018-01-21T07:26:55.861Z,83.75
2018-01-21T07:29:27.005Z,84.09
2018-01-21T07:31:57.065Z,84.40
2018-01-21T07:34:27.817Z,85.08
2018-01-21T07:36:56.835Z,85.20
2018-01-21T07:39:35.369Z,85.39
2018-01-21T07:42:05.293Z,85.83
2018-01-21T07:44:34.471Z,86.29
2018-01-21T07:47:05.320Z,85.65
2018-01-21T07:49:35.163Z,85.31
2018-01-21T07:52:04.118Z,85.23
2018-01-21T07:54:33.247Z,85.17
2018-01-21T07:57:03.643Z,85.15
2018-01-21T07:59:33.044Z,84.53
2018-01-21T08:02:03.524Z,84.55
2018-01-21T08:04:32.512Z,84.73
2018-01-21T08:07:01.604Z,84.20
2018-01-21T08:09:31.540Z,82.92
2018-01-21T08:12:00.707Z,83.64
2018-01-21T08:14:30.021Z,83.50
2018-01-21T08:17:00.041Z,84.10
2018-01-21T08:19:29.127Z,85.73
2018-01-21T08:21:58.239Z,85.12
2018-01-21T08:24:28.456Z,85.93
2018-01-21T08:26:58.911Z,85.12
2018-01-21T08:29:27.788Z,83.57
2018-01-21T08:31:59.386Z,81.87
2018-01-21T08:34:33.901Z,81.97
2018-01-21T08:37:08.844Z,83.12
2018-01-21T08:39:43.362Z,82.67
2018-01-21T08:42:14.871Z,85.52
2018-01-21T08:44:43.799Z,86.47
2018-01-21T08:47:13.701Z,86.82
2018-01-21T08:49:43.805Z,87.37
2018-01-21T08:52:13.770Z,87.36
2018-01-21T08:54:43.589Z,87.16
2018-01-21T08:57:17.176Z,86.63
2018-01-21T08:59:46.676Z,87.30
2018-01-21T09:02:15.720Z,87.47
2018-01-21T09:04:47.591Z,86.67
2018-01-21T09:07:17.448Z,86.89
2018-01-21T09:09:48.137Z,85.39
2018-01-21T09:12:20.762Z,85.87
2018-01-21T09:14:52.153Z,86.96
2018-01-21T09:17:22.192Z,86.75
2018-01-21T09:19:51.616Z,86.42
2018-01-21T09:22:20.822Z,86.25
2018-01-21T09:24:49.998Z,86.17
2018-01-21T09:27:19.164Z,86.62
2018-01-21T09:29:49.412Z,87.28
2018-01-21T09:32:22.039Z,87.53
2018-01-21T09:34:51.587Z,87.28
2018-01-21T09:37:20.645Z,87.64
2018-01-21T09:39:50.263Z,87.41
2018-01-21T09:42:20.662Z,87.42
2018-01-21T09:44:50.120Z,87.59
2018-01-21T09:47:22.680Z,87.07
2018-01-21T09:49:52.223Z,87.09
2018-01-21T09:52:22.101Z,86.03
2018-01-21T09:54:52.233Z,87.92
2018-01-21T09:57:22.566Z,87.24
2018-01-21T09:59:52.472Z,87.51
2018-01-21T10:02:25.847Z,87.98
2018-01-21T10:04:56.266Z,87.69
2018-01-21T10:07:25.789Z,88.54
2018-01-21T10:09:59.224Z,87.75
2018-01-21T10:12:30.115Z,88.09
2018-01-21T10:14:59.548Z,87.99
2018-01-21T10:17:29.447Z,87.75
2018-01-21T10:19:58.375Z,87.69
2018-01-21T10:22:27.582Z,87.28
2018-01-21T10:24:59.481Z,87.91
2018-01-21T10:27:28.477Z,87.83
2018-01-21T10:29:58.586Z,86.99
2018-01-21T10:32:29.225Z,86.89
2018-01-21T10:34:59.965Z,86.84
2018-01-21T10:37:29.071Z,87.60
2018-01-21T10:40:00.608Z,87.43
2018-01-21T10:42:29.636Z,88.49
2018-01-21T10:44:58.835Z,88.68
2018-01-21T10:47:29.166Z,89.84
2018-01-21T10:49:58.483Z,89.32
2018-01-21T10:52:27.701Z,88.83
2018-01-21T10:54:57.189Z,89.05
2018-01-21T10:57:26.230Z,88.11
2018-01-21T10:59:55.462Z,88.07
2018-01-21T11:02:25.927Z,87.57
2018-01-21T11:04:55.103Z,86.87
2018-01-21T11:07:24.973Z,87.53
2018-01-21T11:09:54.937Z,88.15
2018-01-21T11:12:24.285Z,87.70
2018-01-21T11:14:53.538Z,87.78
2018-01-21T11:17:25.423Z,87.70
2018-01-21T11:19:55.666Z,87.34
2018-01-21T11:22:24.863Z,87.35
2018-01-21T11:24:55.153Z,87.44
2018-01-21T11:27:24.222Z,87.80
2018-01-21T11:29:53.350Z,87.95
2018-01-21T11:32:22.484Z,85.97
2018-01-21T11:34:51.713Z,86.49
2018-01-21T11:37:20.948Z,87.76
2018-01-21T11:39:50.741Z,88.34
2018-01-21T11:42:20.290Z,88.13
2018-01-21T11:44:50.292Z,87.75
2018-01-21T11:47:20.108Z,87.41
2018-01-21T11:49:50.074Z,88.12
2018-01-21T11:52:19.157Z,88.77
2018-01-21T11:54:49.097Z,89.08
2018-01-21T11:57:17.959Z,88.74
2018-01-21T11:59:47.841Z,88.87
2018-01-21T12:02:19.744Z,88.88
2018-01-21T12:04:48.782Z,88.60
2018-01-21T12:07:18.036Z,88.90
2018-01-21T12:09:48.445Z,88.39
2018-01-21T12:12:17.769Z,86.06
2018-01-21T12:14:46.800Z,86.89
2018-01-21T12:17:16.926Z,87.12
2018-01-21T12:19:46.333Z,87.32
2018-01-21T12:22:16.537Z,86.09
2018-01-21T12:24:46.319Z,86.87
2018-01-21T12:27:17.313Z,86.97
2018-01-21T12:29:46.207Z,87.46
2018-01-21T12:32:15.839Z,87.70
2018-01-21T12:34:44.856Z,87.40
2018-01-21T12:37:15.971Z,87.32
2018-01-21T12:39:45.990Z,87.10
2018-01-21T12:42:16.555Z,86.38
2018-01-21T12:44:45.592Z,86.46
2018-01-21T12:47:14.739Z,86.83
2018-01-21T12:49:43.968Z,86.84
2018-01-21T12:52:12.855Z,86.70
2018-01-21T12:54:43.722Z,87.29
2018-01-21T12:57:14.667Z,87.50
2018-01-21T12:59:43.648Z,86.77
2018-01-21T13:02:13.161Z,87.25
2018-01-21T13:04:42.124Z,87.15
2018-01-21T13:07:11.482Z,86.53
2018-01-21T13:09:41.328Z,87.36
2018-01-21T13:12:10.551Z,87.90
2018-01-21T13:14:39.779Z,88.19
2018-01-21T13:17:09.016Z,87.53
2018-01-21T13:19:38.145Z,87.30
2018-01-21T13:22:07.311Z,88.15
2018-01-21T13:24:38.559Z,87.94
2018-01-21T13:27:07.492Z,88.06
2018-01-21T13:29:36.541Z,87.98
2018-01-21T13:32:06.504Z,87.67
2018-01-21T13:34:35.537Z,88.09
2018-01-21T13:37:04.918Z,88.09
2018-01-21T13:39:34.899Z,87.69
2018-01-21T13:42:04.209Z,88.42
2018-01-21T13:44:33.178Z,88.62
2018-01-21T13:47:04.920Z,88.77
2018-01-21T13:49:33.939Z,89.50
2018-01-21T13:52:03.888Z,89.06
2018-01-21T13:54:34.012Z,89.17
2018-01-21T13:57:03.394Z,89.40
2018-01-21T13:59:32.545Z,88.55
2018-01-21T14:02:04.006Z,90.11
2018-01-21T14:04:34.679Z,90.60
2018-01-21T14:07:04.656Z,90.42
2018-01-21T14:09:33.691Z,89.66
2018-01-21T14:12:02.869Z,89.51
2018-01-21T14:14:31.982Z,89.15
2018-01-21T14:17:00.971Z,88.76
2018-01-21T14:19:29.984Z,88.84
2018-01-21T14:21:59.086Z,88.38
2018-01-21T14:24:28.493Z,88.16
2018-01-21T14:26:57.358Z,89.06
2018-01-21T14:29:26.394Z,89.46
2018-01-21T14:31:55.577Z,89.26
2018-01-21T14:34:27.003Z,89.15
2018-01-21T14:36:56.067Z,89.43
2018-01-21T14:39:25.370Z,88.72
2018-01-21T14:41:54.668Z,89.11
2018-01-21T14:44:24.671Z,88.91
2018-01-21T14:46:54.511Z,89.08
2018-01-21T14:49:23.625Z,89.27
2018-01-21T14:51:52.897Z,89.41
2018-01-21T14:54:23.068Z,88.88
2018-01-21T14:56:52.240Z,89.30
2018-01-21T14:59:21.426Z,89.05
2018-01-21T15:01:50.779Z,89.03
2018-01-21T15:04:19.921Z,88.93
2018-01-21T15:06:53.212Z,89.45
2018-01-21T15:09:23.114Z,89.71
2018-01-21T15:11:53.096Z,90.48
2018-01-21T15:14:23.911Z,90.63
2018-01-21T15:16:53.243Z,90.60
2018-01-21T15:19:23.288Z,90.23
2018-01-21T15:21:53.273Z,90.86
2018-01-21T15:24:22.291Z,90.97
2018-01-21T15:26:52.343Z,91.51
2018-01-21T15:29:24.865Z,91.62
2018-01-21T15:31:54.690Z,91.72
2018-01-21T15:34:26.291Z,91.71
2018-01-21T15:36:58.400Z,91.26
2018-01-21T15:39:28.005Z,91.34
2018-01-21T15:41:57.293Z,91.09
2018-01-21T15:44:26.379Z,91.32
2018-01-21T15:46:56.768Z,91.21
2018-01-21T15:49:27.689Z,91.42
2018-01-21T15:51:56.911Z,91.46
2018-01-21T15:54:26.228Z,91.07
2018-01-21T15:56:56.396Z,91.55
2018-01-21T15:59:26.769Z,91.78
2018-01-21T16:01:57.645Z,91.90
2018-01-21T16:04:27.145Z,92.00
2018-01-21T16:06:57.178Z,92.31
2018-01-21T16:09:26.845Z,92.60
2018-01-21T16:11:56.039Z,92.34
2018-01-21T16:14:25.626Z,92.26
2018-01-21T16:16:58.789Z,92.63
2018-01-21T16:19:28.921Z,92.18
2018-01-21T16:21:58.161Z,92.18
2018-01-21T16:24:28.105Z,92.19
2018-01-21T16:26:57.681Z,92.83
2018-01-21T16:29:27.504Z,93.51
2018-01-21T16:32:00.037Z,93.82
2018-01-21T16:34:30.958Z,94.27
2018-01-21T16:37:01.332Z,94.64
2018-01-21T16:39:30.592Z,94.90
2018-01-21T16:42:00.504Z,95.42
2018-01-21T16:44:30.340Z,96.02
2018-01-21T16:47:00.436Z,96.64
2018-01-21T16:49:33.907Z,96.74
2018-01-21T16:52:02.846Z,96.93
2018-01-21T16:54:31.834Z,97.81
2018-01-21T16:57:02.616Z,97.95
2018-01-21T16:59:32.078Z,98.54
2018-01-21T17:02:01.455Z,98.99
2018-01-21T17:04:30.892Z,99.22
2018-01-21T17:06:59.774Z,99.94
2018-01-21T17:09:28.803Z,99.97
2018-01-21T17:11:59.766Z,99.82
2018-01-21T17:14:29.255Z,99.90
2018-01-21T17:16:58.756Z,100.00
2018-01-21T17:19:33.161Z,100.00
2018-01-21T17:22:02.399Z,100.00
2018-01-21T17:24:31.980Z,100.00
2018-01-21T17:27:07.997Z,100.00
2018-01-21T17:29:37.549Z,100.00
2018-01-21T17:32:06.941Z,100.00
2018-01-21T17:34:37.449Z,100.00
2018-01-21T17:37:06.569Z,100.00
2018-01-21T17:39:37.585Z,100.00
2018-01-21T17:42:09.946Z,100.00
2018-01-21T17:44:39.299Z,100.00
2018-01-21T17:47:08.392Z,100.00
2018-01-21T17:49:40.114Z,100.00
2018-01-21T17:52:10.406Z,100.00
2018-01-21T17:54:40.142Z,100.00
2018-01-21T17:57:10.956Z,100.00
2018-01-21T17:59:41.440Z,100.00
2018-01-21T18:02:10.656Z,100.00
2018-01-21T18:04:40.690Z,100.00
2018-01-21T18:07:10.206Z,100.00
2018-01-21T18:09:39.812Z,100.00
2018-01-21T18:12:09.905Z,100.00
2018-01-21T18:14:40.065Z,100.00
2018-01-21T18:17:12.480Z,100.00
2018-01-21T18:19:42.212Z,100.00
2018-01-21T18:22:11.868Z,100.00
2018-01-21T18:24:41.544Z,100.00
2018-01-21T18:27:14.811Z,100.00
2018-01-21T18:29:46.446Z,100.00
2018-01-21T18:32:16.338Z,100.00
2018-01-21T18:34:45.759Z,100.00
2018-01-21T18:37:17.286Z,100.00
2018-01-21T18:39:47.455Z,100.00
2018-01-21T18:42:16.795Z,100.00
2018-01-21T18:44:46.258Z,100.00
2018-01-21T18:47:15.742Z,100.00
2018-01-21T18:49:45.336Z,100.00
2018-01-21T18:52:15.213Z,100.00
2018-01-21T18:54:44.571Z,100.00
2018-01-21T18:57:13.999Z,100.00
2018-01-21T18:59:46.341Z,100.00
2018-01-21T19:02:15.806Z,100.00
2018-01-21T19:04:45.226Z,100.00
2018-01-21T19:07:15.474Z,100.00
2018-01-21T19:09:45.148Z,100.00
2018-01-21T19:12:17.570Z,100.00
2018-01-21T19:14:47.247Z,100.00
2018-01-21T19:17:17.191Z,100.00
2018-01-21T19:19:47.320Z,100.00
2018-01-21T19:22:17.646Z,100.00
2018-01-21T19:24:47.726Z,100.00
2018-01-21T19:27:17.148Z,100.00
2018-01-21T19:29:47.957Z,100.00
2018-01-21T19:32:19.133Z,100.00
2018-01-21T19:34:48.166Z,100.00
2018-01-21T19:37:17.277Z,100.00
2018-01-21T19:40:03.186Z,100.00
2018-01-21T19:42:49.055Z,100.00
2018-01-21T19:45:18.661Z,100.00
2018-01-21T19:47:48.082Z,100.00
2018-01-21T19:50:17.687Z,100.00
2018-01-21T19:52:48.111Z,100.00
2018-01-21T19:55:17.418Z,100.00
2018-01-21T19:57:46.628Z,100.00
2018-01-21T20:00:17.220Z,100.00
2018-01-21T20:02:48.047Z,100.00
2018-01-21T20:05:17.936Z,100.00
2018-01-21T20:07:47.588Z,100.00
2018-01-21T20:10:17.146Z,100.00
2018-01-21T20:12:55.371Z,100.00
2018-01-21T20:15:25.118Z,100.00
2018-01-21T20:17:54.599Z,100.00
2018-01-21T20:20:24.087Z,100.00
2018-01-21T20:22:53.253Z,100.00
2018-01-21T20:25:22.473Z,100.00
2018-01-21T20:27:59.080Z,100.00
2018-01-21T20:30:28.417Z,100.00
2018-01-21T20:32:57.830Z,100.00
2018-01-21T20:35:28.196Z,100.00
2018-01-21T20:37:58.518Z,100.00
2018-01-21T20:40:27.593Z,100.00
2018-01-21T20:42:57.496Z,100.00
2018-01-21T20:45:28.115Z,100.00
2018-01-21T20:47:58.128Z,100.00
2018-01-21T20:50:28.297Z,100.00
2018-01-21T20:52:58.223Z,100.00
2018-01-21T20:55:27.319Z,100.00
2018-01-21T20:57:56.822Z,100.00
2018-01-21T21:00:26.388Z,100.00
2018-01-21T21:02:56.444Z,100.00
2018-01-21T21:05:27.790Z,100.00
2018-01-21T21:07:56.950Z,100.00
2018-01-21T21:10:27.125Z,100.00
2018-01-21T21:12:56.735Z,100.00
2018-01-21T21:15:27.254Z,100.00
2018-01-21T21:17:56.701Z,100.00
2018-01-21T21:20:26.622Z,100.00
2018-01-21T21:22:56.939Z,100.00
2018-01-21T21:25:26.328Z,100.00
2018-01-21T21:27:56.049Z,100.00
2018-01-21T21:30:26.457Z,100.00
2018-01-21T21:32:57.286Z,100.00
2018-01-21T21:35:30.262Z,100.00
2018-01-21T21:38:00.228Z,100.00
2018-01-21T21:40:30.378Z,100.00
2018-01-21T21:42:59.848Z,100.00
2018-01-21T21:45:30.186Z,100.00
2018-01-21T21:47:59.512Z,100.00
2018-01-21T21:50:29.106Z,100.00
2018-01-21T21:52:58.141Z,100.00
2018-01-21T21:55:27.328Z,100.00
2018-01-21T21:57:57.848Z,100.00
2018-01-21T22:00:27.373Z,100.00
2018-01-21T22:02:56.566Z,100.00
2018-01-21T22:05:25.771Z,100.00
2018-01-21T22:07:55.949Z,100.00
2018-01-21T22:10:25.042Z,100.00
2018-01-21T22:12:54.181Z,100.00
2018-01-21T22:15:25.754Z,100.00
2018-01-21T22:17:55.296Z,100.00
2018-01-21T22:20:24.930Z,100.00
2018-01-21T22:22:54.362Z,100.00
2018-01-21T22:25:24.014Z,100.00
2018-01-21T22:27:53.427Z,100.00
2018-01-21T22:30:23.007Z,100.00
2018-01-21T22:32:52.640Z,100.00
2018-01-21T22:35:22.079Z,100.00
2018-01-21T22:37:51.780Z,100.00
2018-01-21T22:40:22.059Z,100.00
2018-01-21T22:42:51.796Z,100.00
2018-01-21T22:45:22.949Z,100.00
2018-01-21T22:47:52.610Z,100.00
2018-01-21T22:50:22.433Z,100.00
2018-01-21T22:52:51.560Z,100.00
2018-01-21T22:55:21.926Z,100.00
2018-01-21T22:57:52.210Z,100.00
2018-01-21T23:00:22.305Z,100.00
2018-01-21T23:02:51.648Z,100.00
2018-01-21T23:05:21.316Z,100.00
2018-01-21T23:07:51.343Z,100.00
2018-01-21T23:10:20.577Z,100.00
2018-01-21T23:12:49.734Z,100.00
2018-01-21T23:15:19.316Z,100.00
2018-01-21T23:17:50.225Z,100.00
2018-01-21T23:20:31.282Z,100.00
2018-01-21T23:23:00.204Z,100.00
2018-01-21T23:25:29.161Z,100.00
2018-01-21T23:27:58.806Z,100.00
2018-01-21T23:30:27.764Z,100.00
2018-01-21T23:32:56.891Z,100.00
2018-01-21T23:35:26.259Z,100.00
2018-01-21T23:37:55.473Z,100.00
2018-01-21T23:40:25.474Z,100.00
2018-01-21T23:42:58.026Z,100.00
2018-01-21T23:45:27.353Z,100.00
2018-01-21T23:47:56.351Z,100.00
2018-01-21T23:50:27.637Z,100.00
2018-01-21T23:52:58.678Z,100.00
2018-01-21T23:55:28.058Z,100.00
2018-01-21T23:57:58.264Z,100.00
